Historyczne dane pomiarowe

Dodano dane terminowe – wersja testowa.

Dane z okresu 1951-2019

Wersja bazy: 1.34 [2019-03-16, lista zmian], aktualizacja planowana na 2019-04-15

Dane meteo z obszaru Polski uzyskane na podstawie danych udostępnionych przez Instytut Meteorologii i Gospodarki Wodnej – Państwowy Instytut Badawczy.

 

Wybierz Datę:    

       

TemperaturaWilgotnośćZachmurzenieWiatrCiśnienieWidzialnośćZjawiska
 Data    tng td wb rh cc ccl cl cm ch dir g1 g2 mslp ppp      
1999-06-29 00:00:00 17.2--- 16.1 16.593wxwxwxwx1wx--1015.4 993.5 0.1---wxw1
1999-06-29 01:00:00 16.6--- 15.6 16.094wxwxwxwx0wx--1015.0 993.0----wx
1999-06-29 02:00:00 15.2--- 14.5 14.896wxwxwxwx2wx--1016.1 994.0----wx
1999-06-29 03:00:00 16.0--- 15.4 15.696wxwxwxwx2wx--1015.6 993.6----wx
1999-06-29 04:00:00 18.8--- 16.0 17.084wxwxwx3wx--1015.8 994.0----wx
1999-06-29 05:00:00 20.4--- 14.6 16.869wxwxwx3wx--1016.1 994.4----wx
1999-06-29 06:00:00 21.6--- 14.2 17.063wxwxwxwx3wx--1016.7 995.1 0.0---wx
1999-06-29 07:00:00 21.2--- 16.4 18.174wxwxwxwx4wx--1017.6 995.9----wx
1999-06-29 08:00:00 20.9--- 16.9 18.378wxwxwx4wx--1018.3 996.6----wx
1999-06-29 09:00:00 18.7--- 15.8 16.984wxwxwx5wx--1019.1 997.2----wx
1999-06-29 10:00:00 17.5--- 16.1 16.691wxwxwx5wx--1019.2 997.2----wx
1999-06-29 11:00:00 17.7--- 15.8 16.589wxwxwx4wx--1019.2 997.2----wx
1999-06-29 12:00:00 19.8--- 15.9 17.378wxwxwx5wx--1018.6 996.8 0.9---wxw1
1999-06-29 13:00:00 20.3--- 15.6 17.374wxwxwx5wx--1018.4 996.6----wx
1999-06-29 14:00:00 21.1--- 14.5 17.066wxwxwx4wx--1018.5 996.8----wx
1999-06-29 15:00:00 20.8--- 12.5 15.859wxwxwxwx3wx--1018.6 996.9----wx
1999-06-29 16:00:00 20.5--- 12.5 15.760wxwxwxwx3wx--1018.9 997.1----wx
1999-06-29 17:00:00 19.3--- 12.3 15.164wxwxwx3wx--1019.3 997.4----wx
1999-06-29 18:00:00 18.1--- 11.2 14.164wxwxwx3wx--1019.7 997.7 0.0---wx
1999-06-29 19:00:00 15.3--- 10.7 12.774wxwxwx2wx--1020.1 997.9----wx
1999-06-29 20:00:00 13.3--- 10.8 11.985wxwxwx2wx--1020.2 997.9----wx
1999-06-29 21:00:00 11.7--- 10.6 11.193wxwx2wx--1020.4 997.9----wx
1999-06-29 22:00:00 12.2--- 10.6 11.390wxwx2wx--1020.3 997.9----wx
1999-06-29 23:00:00 11.7--- 10.3 10.991wxwxwx1wx--1020.4 997.9----wx

 

Źródłem pochodzenia danych jest Instytut Meteorologii i Gospodarki Wodnej – Państwowy Instytut Badawczy. Dane Instytutu Meteorologii i Gospodarki Wodnej – Państwowego Instytutu Badawczego zostały przetworzone.

Dane źródłowe można odnaleźć na stronie https://dane.imgw.pl